Time;durP1;ratioP1;P1;durP2;ratioP2;P2;SDS_P1;SDS_P2;PMS_P1;PMS_P2;Temp;Humidity;BMP_temperature;BMP_pressure;BME280_temperature;BME280_humidity;BME280_pressure;Samples;Min_cycle;Max_cycle;Signal;HPM_P1;HPM_P2
2023/11/14 00:00:59;;;;;;;10.43;2.40;;;;;;;10.64;88.36;94925.50;6185413;23;20178;-77
2023/11/14 00:03:28;;;;;;;11.10;2.53;;;;;;;10.75;87.88;94932.13;6159019;23;20185;-78
2023/11/14 00:05:53;;;;;;;10.13;2.67;;;;;;;10.89;87.98;94931.47;6159092;23;20229;-78
2023/11/14 00:08:19;;;;;;;9.63;2.30;;;;;;;10.63;88.95;94910.09;6159415;23;20680;-78
2023/11/14 00:10:44;;;;;;;8.47;2.70;;;;;;;10.78;88.66;94900.66;6159600;23;20567;-78
2023/11/14 00:13:09;;;;;;;11.27;2.40;;;;;;;10.67;89.61;94888.00;6134515;23;20158;-78
2023/11/14 00:15:35;;;;;;;10.20;2.27;;;;;;;10.73;89.09;94895.13;6134443;23;20222;-78
2023/11/14 00:18:01;;;;;;;9.43;2.30;;;;;;;10.67;90.13;94891.41;6134224;23;20154;-78
2023/11/14 00:20:26;;;;;;;14.03;3.07;;;;;;;10.59;90.10;94885.41;6134636;23;20206;-78
2023/11/14 00:22:52;;;;;;;15.40;2.60;;;;;;;10.55;90.87;94878.94;6158887;23;20166;-78
2023/11/14 00:25:17;;;;;;;10.13;2.33;;;;;;;10.42;91.11;94877.66;6158929;23;20238;-78
2023/11/14 00:27:42;;;;;;;13.70;2.80;;;;;;;10.53;90.35;94902.47;6159423;23;20708;-79
2023/11/14 00:30:09;;;;;;;11.50;2.83;;;;;;;10.52;90.19;94910.41;6134824;23;20182;-78
2023/11/14 00:32:34;;;;;;;8.33;2.27;;;;;;;10.36;91.21;94901.66;6134524;23;20194;-77
2023/11/14 00:35:00;;;;;;;7.73;2.33;;;;;;;10.24;92.01;94908.09;6135099;23;20205;-78
2023/11/14 00:37:25;;;;;;;6.20;1.90;;;;;;;10.34;91.41;94902.78;6134493;23;20166;-77
2023/11/14 00:39:50;;;;;;;10.20;2.27;;;;;;;10.25;90.22;94894.19;6159214;23;20154;-77
2023/11/14 00:42:16;;;;;;;10.90;2.30;;;;;;;10.29;89.37;94890.28;6135382;23;20166;-78
2023/11/14 00:44:45;;;;;;;10.33;2.23;;;;;;;10.12;89.94;94889.44;6159800;23;20174;-78
2023/11/14 00:47:10;;;;;;;13.10;2.43;;;;;;;10.15;89.97;94889.09;6134284;23;20281;-78
2023/11/14 00:49:36;;;;;;;14.90;2.63;;;;;;;10.13;90.11;94885.03;6158864;23;20158;-79
2023/11/14 00:52:01;;;;;;;12.10;2.97;;;;;;;10.27;89.70;94891.44;6134371;23;20174;-79
2023/11/14 00:54:27;;;;;;;9.33;2.40;;;;;;;10.24;89.96;94882.16;6159681;23;20151;-77
2023/11/14 00:56:53;;;;;;;9.77;2.03;;;;;;;10.08;90.56;94874.34;6133966;23;20181;-79
2023/11/14 00:59:19;;;;;;;18.97;2.60;;;;;;;10.03;90.04;94868.81;6135180;23;20233;-78
2023/11/14 01:01:44;;;;;;;13.47;2.40;;;;;;;10.13;88.90;94879.84;6160019;23;20197;-79
2023/11/14 01:04:12;;;;;;;9.77;2.33;;;;;;;10.10;89.27;94881.00;6134067;23;20646;-79
2023/11/14 01:06:37;;;;;;;11.40;2.80;;;;;;;10.04;89.79;94884.22;6134857;23;20169;-79
2023/11/14 01:09:03;;;;;;;11.53;2.70;;;;;;;10.05;89.79;94903.19;6185449;23;20159;-77
2023/11/14 01:11:28;;;;;;;14.87;3.33;;;;;;;10.10;90.03;94895.75;6158334;23;20232;-77
2023/11/14 01:13:54;;;;;;;11.67;2.60;;;;;;;10.04;89.71;94902.38;6134036;23;20204;-79
2023/11/14 01:16:19;;;;;;;14.97;2.70;;;;;;;9.96;89.85;94899.78;6133509;23;20219;-77
2023/11/14 01:18:44;;;;;;;12.67;2.73;;;;;;;9.99;89.73;94896.88;6134292;23;20173;-79
2023/11/14 01:21:16;;;;;;;11.57;2.73;;;;;;;10.11;88.94;94928.50;6158291;23;20522;-77
2023/11/14 01:23:42;;;;;;;10.13;2.93;;;;;;;10.13;88.74;94922.19;6159600;23;20261;-78
2023/11/14 01:26:07;;;;;;;13.40;2.50;;;;;;;10.28;88.25;94927.59;6133960;23;20189;-78
2023/11/14 01:28:33;;;;;;;11.60;2.50;;;;;;;10.17;88.75;94940.84;6159208;23;20182;-79
2023/11/14 01:30:58;;;;;;;11.57;2.63;;;;;;;10.14;88.67;94928.97;6159303;23;20642;-79
2023/11/14 01:33:23;;;;;;;12.90;3.00;;;;;;;10.16;88.66;94921.88;6134560;23;20625;-77
2023/11/14 01:35:48;;;;;;;12.37;2.73;;;;;;;10.09;88.49;94926.06;6158767;23;20499;-78
2023/11/14 01:38:14;;;;;;;10.20;2.60;;;;;;;10.31;87.66;94918.66;6134099;23;20162;-79
2023/11/14 01:40:48;;;;;;;10.47;2.47;;;;;;;10.31;87.98;94919.47;6133956;23;20174;-78
2023/11/14 01:43:14;;;;;;;11.93;2.30;;;;;;;10.12;88.38;94919.75;6158661;23;20554;-78
2023/11/14 01:45:39;;;;;;;10.83;2.57;;;;;;;10.17;87.37;94922.69;6133213;23;20289;-79
2023/11/14 01:48:04;;;;;;;11.17;2.97;;;;;;;10.19;87.74;94938.91;6159596;23;20323;-78
2023/11/14 01:50:30;;;;;;;10.13;2.50;;;;;;;10.04;88.44;94951.66;6158461;23;20183;-77
2023/11/14 01:52:55;;;;;;;15.33;2.80;;;;;;;10.32;87.19;94949.63;6134575;23;20166;-78
2023/11/14 01:55:22;;;;;;;11.60;3.60;;;;;;;10.39;86.36;94949.81;6133994;23;20598;-79
2023/11/14 01:57:47;;;;;;;12.60;2.87;;;;;;;10.25;86.18;94945.25;6135172;23;20245;-78
2023/11/14 02:00:14;;;;;;;9.50;1.97;;;;;;;10.14;86.46;94949.75;6157107;23;20178;-78
2023/11/14 02:02:40;;;;;;;9.10;3.10;;;;;;;10.28;86.05;94937.97;6158566;23;20241;-76
2023/11/14 02:05:06;;;;;;;13.37;2.63;;;;;;;10.21;86.53;94929.16;6157623;23;20209;-78
2023/11/14 02:07:31;;;;;;;9.80;2.40;;;;;;;10.26;86.15;94939.91;6134239;23;20223;-77
2023/11/14 02:09:57;;;;;;;9.37;2.47;;;;;;;10.42;85.57;94955.50;6135198;23;20585;-78
2023/11/14 02:12:22;;;;;;;11.10;2.70;;;;;;;10.29;86.10;94962.94;6158703;23;20147;-78
2023/11/14 02:14:48;;;;;;;11.43;2.53;;;;;;;10.29;86.74;94942.19;6159476;23;20150;-78
2023/11/14 02:17:17;;;;;;;12.97;3.10;;;;;;;10.28;86.58;94950.94;6134764;23;20181;-79
2023/11/14 02:19:42;;;;;;;15.80;2.50;;;;;;;10.37;86.25;94954.38;6159964;23;20193;-79
2023/11/14 02:22:09;;;;;;;10.87;3.73;;;;;;;10.39;86.16;94955.81;6158968;23;20155;-78
2023/11/14 02:24:35;;;;;;;9.23;2.63;;;;;;;10.44;86.37;94966.53;6133775;23;20266;-79
2023/11/14 02:27:01;;;;;;;10.77;2.60;;;;;;;10.17;87.16;94970.19;6157977;23;20245;-79
2023/11/14 02:29:27;;;;;;;11.20;2.57;;;;;;;10.16;87.20;94965.19;6158133;23;20289;-78
2023/11/14 02:31:53;;;;;;;8.73;2.10;;;;;;;10.20;87.19;94953.50;6134165;23;20185;-79
2023/11/14 02:34:18;;;;;;;12.30;3.27;;;;;;;10.15;87.27;94946.16;6134849;23;20503;-78
2023/11/14 02:36:43;;;;;;;14.07;3.03;;;;;;;10.25;86.54;94943.50;6135499;23;20165;-78
2023/11/14 02:39:09;;;;;;;12.33;2.87;;;;;;;10.11;87.53;94954.44;6160789;23;20213;-78
2023/11/14 02:41:38;;;;;;;14.53;3.40;;;;;;;10.12;87.37;94945.69;6135326;23;20232;-78
2023/11/14 02:44:03;;;;;;;12.83;2.93;;;;;;;10.22;87.06;94933.41;6160988;23;20197;-77
2023/11/14 02:46:29;;;;;;;10.27;2.60;;;;;;;10.19;86.47;94929.34;6159971;23;20179;-78
2023/11/14 02:48:54;;;;;;;13.43;2.60;;;;;;;10.27;86.35;94922.56;6136512;23;20163;-78
2023/11/14 02:51:20;;;;;;;13.67;2.67;;;;;;;10.20;86.75;94919.75;6160615;23;20174;-78
2023/11/14 02:53:46;;;;;;;11.90;2.70;;;;;;;10.10;87.04;94916.50;6160152;23;20157;-78
2023/11/14 02:56:12;;;;;;;12.67;2.37;;;;;;;10.06;87.51;94930.75;6159132;23;20165;-78
2023/11/14 02:58:37;;;;;;;11.67;2.43;;;;;;;10.11;87.00;94942.28;6158600;23;20237;-78
2023/11/14 03:01:03;;;;;;;10.93;2.77;;;;;;;10.01;88.07;94944.22;6135453;23;20185;-78
2023/11/14 03:03:29;;;;;;;10.23;2.83;;;;;;;10.13;87.05;94952.50;6186322;23;20189;-78
2023/11/14 03:05:54;;;;;;;10.77;2.60;;;;;;;10.08;87.70;94963.38;6159183;23;20191;-78
2023/11/14 03:08:19;;;;;;;7.90;2.30;;;;;;;9.89;88.65;94961.03;6159919;23;20151;-78
2023/11/14 03:10:45;;;;;;;12.73;2.97;;;;;;;10.09;87.87;94974.56;6135103;23;20182;-76
2023/11/14 03:13:10;;;;;;;13.17;3.30;;;;;;;10.08;87.98;94975.53;6159138;23;20555;-78
2023/11/14 03:15:36;;;;;;;14.30;2.50;;;;;;;9.99;88.47;94979.06;6159064;23;20151;-78
2023/11/14 03:18:01;;;;;;;10.87;2.63;;;;;;;9.86;89.73;94985.50;6135330;23;20468;-78
2023/11/14 03:20:27;;;;;;;6.80;2.00;;;;;;;10.08;88.94;94996.28;6160083;23;20197;-79
2023/11/14 03:22:53;;;;;;;11.77;2.10;;;;;;;9.91;90.12;94990.22;6159415;23;20224;-77
2023/11/14 03:25:19;;;;;;;8.73;2.67;;;;;;;9.89;90.33;94972.25;6134294;23;20552;-78
2023/11/14 03:27:44;;;;;;;11.67;2.67;;;;;;;10.04;89.83;94979.41;6159396;23;20226;-78
2023/11/14 03:30:10;;;;;;;10.37;1.97;;;;;;;9.95;90.67;94975.97;6134603;23;20205;-78
2023/11/14 03:32:36;;;;;;;10.00;2.20;;;;;;;10.10;89.80;94989.16;6159580;23;20166;-78
2023/11/14 03:35:05;;;;;;;9.23;2.27;;;;;;;10.08;89.84;94998.88;6159095;23;20161;-79
2023/11/14 03:37:31;;;;;;;11.23;2.40;;;;;;;10.17;89.38;94992.75;6135091;23;20180;-78
2023/11/14 03:39:56;;;;;;;13.10;2.30;;;;;;;10.23;89.14;94996.50;6134933;23;20662;-78
2023/11/14 03:42:21;;;;;;;12.33;2.70;;;;;;;10.19;88.96;95014.16;6185960;23;20591;-78
2023/11/14 03:44:47;;;;;;;10.80;2.50;;;;;;;10.08;89.93;95017.84;6158947;23;20269;-78
2023/11/14 03:47:12;;;;;;;9.67;2.17;;;;;;;10.12;89.17;95006.16;6159239;23;20162;-78
2023/11/14 03:49:37;;;;;;;12.83;2.20;;;;;;;10.24;88.17;95026.66;6134934;23;20250;-77
2023/11/14 03:52:03;;;;;;;11.80;2.33;;;;;;;10.09;88.37;95021.25;6186508;23;20512;-79
2023/11/14 03:54:28;;;;;;;7.20;1.83;;;;;;;10.16;88.38;95038.63;6134005;23;20161;-78
2023/11/14 03:56:54;;;;;;;8.33;2.00;;;;;;;10.11;88.28;95027.09;6184726;23;20211;-77
2023/11/14 03:59:20;;;;;;;8.57;2.10;;;;;;;10.15;87.37;95024.00;6135137;23;20178;-79
2023/11/14 04:01:45;;;;;;;11.13;2.30;;;;;;;10.16;86.41;95027.44;6159553;23;20174;-79
2023/11/14 04:04:11;;;;;;;8.63;2.13;;;;;;;10.16;86.69;95032.63;6185011;23;20613;-78
2023/11/14 04:06:36;;;;;;;8.23;2.10;;;;;;;10.17;86.34;95031.66;6133938;23;20216;-78
2023/11/14 04:09:02;;;;;;;7.67;2.20;;;;;;;10.21;85.73;95032.97;6134613;23;20676;-79
2023/11/14 04:11:27;;;;;;;8.07;2.10;;;;;;;10.23;85.54;95038.81;6159215;23;20254;-78
2023/11/14 04:13:52;;;;;;;6.37;2.03;;;;;;;10.35;85.05;95045.38;6158977;23;20154;-78
2023/11/14 04:16:19;;;;;;;8.20;2.47;;;;;;;10.21;85.50;95041.56;6158435;23;20193;-77
2023/11/14 04:18:44;;;;;;;12.43;2.57;;;;;;;10.03;84.43;95027.06;6185862;23;20174;-78
2023/11/14 04:21:10;;;;;;;7.10;1.90;;;;;;;9.93;83.93;95019.41;6158798;23;20193;-78
2023/11/14 04:23:35;;;;;;;10.80;2.30;;;;;;;10.05;83.54;95017.34;6158509;23;20209;-78
2023/11/14 04:26:01;;;;;;;10.47;2.30;;;;;;;10.11;83.69;95027.09;6133784;23;20232;-78
2023/11/14 04:28:27;;;;;;;8.47;2.27;;;;;;;10.20;83.13;95020.97;6133946;23;20162;-79
2023/11/14 04:30:52;;;;;;;13.63;2.67;;;;;;;10.09;83.30;95034.22;6158999;23;20236;-78
2023/11/14 04:33:18;;;;;;;10.87;2.60;;;;;;;10.17;83.40;95034.25;6159237;23;20158;-78
2023/11/14 04:35:43;;;;;;;5.90;1.97;;;;;;;10.07;83.90;95033.53;6158294;23;20154;-78
2023/11/14 04:38:08;;;;;;;10.10;2.73;;;;;;;10.05;84.17;95032.91;6134196;23;20181;-78
2023/11/14 04:40:34;;;;;;;9.10;3.27;;;;;;;10.09;84.27;95035.03;6158613;23;20509;-78
2023/11/14 04:42:59;;;;;;;9.20;2.30;;;;;;;9.99;84.78;95042.13;6158669;23;20155;-79
2023/11/14 04:45:25;;;;;;;10.80;2.30;;;;;;;9.97;85.12;95040.66;6133986;23;20212;-78
2023/11/14 04:47:51;;;;;;;9.17;2.67;;;;;;;9.97;84.77;95049.25;6158952;23;20150;-78
2023/11/14 04:50:19;;;;;;;12.03;2.67;;;;;;;9.93;84.59;95035.78;6158343;23;20269;-78
2023/11/14 04:52:44;;;;;;;8.50;2.40;;;;;;;9.96;84.25;95044.22;6158596;23;20180;-78
2023/11/14 04:55:09;;;;;;;15.20;3.70;;;;;;;10.04;82.78;95039.06;6157982;23;20845;-78
2023/11/14 04:57:35;;;;;;;7.43;2.13;;;;;;;10.17;82.71;95050.63;6157829;23;20154;-78
2023/11/14 05:00:00;;;;;;;12.23;2.33;;;;;;;9.96;83.38;95060.59;6184480;23;20174;-78
2023/11/14 05:02:27;;;;;;;7.83;2.37;;;;;;;9.98;83.68;95076.81;6159138;23;20579;-80
2023/11/14 05:04:53;;;;;;;9.30;2.13;;;;;;;9.81;84.01;95072.53;6133778;23;20178;-78
2023/11/14 05:07:18;;;;;;;10.50;2.30;;;;;;;9.64;84.01;95063.84;6158179;23;20479;-79
2023/11/14 05:09:43;;;;;;;9.90;2.10;;;;;;;9.73;82.68;95049.97;6158816;23;20802;-80
2023/11/14 05:12:09;;;;;;;7.53;2.20;;;;;;;9.82;82.79;95046.44;6133357;23;20201;-78
2023/11/14 05:14:36;;;;;;;15.43;3.17;;;;;;;9.86;82.78;95047.75;6133635;23;20205;-80
2023/11/14 05:17:02;;;;;;;7.27;2.00;;;;;;;9.84;82.78;95061.84;6157687;23;20237;-79
2023/11/14 05:19:27;;;;;;;7.73;1.87;;;;;;;9.84;82.81;95046.28;6158320;23;20257;-79
2023/11/14 05:21:53;;;;;;;10.30;2.37;;;;;;;9.76;82.73;95049.63;6157268;23;20174;-78
2023/11/14 05:24:18;;;;;;;9.03;2.20;;;;;;;9.66;81.73;95056.72;6133923;23;20187;-79
2023/11/14 05:26:45;;;;;;;13.13;2.47;;;;;;;9.75;81.56;95058.38;6133609;23;20169;-80
2023/11/14 05:29:10;;;;;;;9.30;1.73;;;;;;;9.76;81.35;95061.78;6158988;23;20151;-79
2023/11/14 05:31:36;;;;;;;9.20;2.23;;;;;;;9.80;81.34;95066.50;6158700;23;20237;-79
2023/11/14 05:34:01;;;;;;;8.73;2.13;;;;;;;9.69;80.74;95064.19;6158254;23;20194;-79
2023/11/14 05:36:27;;;;;;;13.77;2.40;;;;;;;9.65;80.46;95065.47;6158255;23;20163;-79
2023/11/14 05:38:52;;;;;;;11.07;2.20;;;;;;;9.82;80.14;95071.56;6158312;23;20170;-79
2023/11/14 05:41:18;;;;;;;7.63;2.07;;;;;;;9.87;79.80;95067.50;6134185;23;20189;-79
2023/11/14 05:43:44;;;;;;;8.30;2.33;;;;;;;9.87;79.70;95062.31;6133032;23;20206;-77
2023/11/14 05:46:09;;;;;;;7.80;2.33;;;;;;;9.75;80.34;95060.97;6132534;23;20189;-78
2023/11/14 05:48:35;;;;;;;10.03;2.93;;;;;;;9.82;79.63;95062.00;6157741;23;20162;-79
2023/11/14 05:51:01;;;;;;;9.73;2.20;;;;;;;9.67;79.55;95055.75;6157835;23;20199;-79
2023/11/14 05:53:26;;;;;;;6.63;2.30;;;;;;;9.87;79.17;95054.56;6133426;23;20155;-80
2023/11/14 05:55:51;;;;;;;8.03;2.30;;;;;;;9.79;79.82;95064.06;6132273;23;20190;-80
2023/11/14 05:58:17;;;;;;;7.37;1.80;;;;;;;9.67;79.04;95066.13;6133023;23;20160;-79
2023/11/14 06:00:42;;;;;;;6.67;2.33;;;;;;;9.87;78.81;95069.28;6157867;23;20224;-79
2023/11/14 06:03:07;;;;;;;9.03;2.33;;;;;;;9.72;79.03;95063.91;6157801;23;20598;-78
2023/11/14 06:05:33;;;;;;;9.63;2.10;;;;;;;9.79;79.01;95057.09;6156543;23;20509;-79
2023/11/14 06:07:58;;;;;;;10.20;1.87;;;;;;;9.72;79.50;95066.50;6158664;23;20232;-78
2023/11/14 06:10:24;;;;;;;7.77;1.90;;;;;;;9.84;79.46;95052.28;6160095;23;20174;-80
2023/11/14 06:12:50;;;;;;;5.43;2.03;;;;;;;9.96;79.65;95063.19;6136080;23;20162;-78
2023/11/14 06:15:16;;;;;;;6.70;1.50;;;;;;;9.88;80.52;95053.56;6160685;23;20151;-79
2023/11/14 06:17:41;;;;;;;6.13;2.23;;;;;;;9.82;80.87;95050.81;6134964;23;20268;-80
2023/11/14 06:20:08;;;;;;;7.13;1.87;;;;;;;9.86;81.39;95060.72;6135448;23;20190;-81
2023/11/14 06:22:33;;;;;;;7.17;1.80;;;;;;;9.85;81.00;95059.09;6135801;23;20182;-79
2023/11/14 06:25:00;;;;;;;5.07;1.83;;;;;;;9.84;81.28;95054.88;6136055;23;20248;-79
2023/11/14 06:27:25;;;;;;;5.57;1.47;;;;;;;9.90;81.19;95067.22;6160163;23;20242;-80
2023/11/14 06:29:51;;;;;;;5.37;1.60;;;;;;;9.81;81.53;95060.38;6162427;23;20147;-79
2023/11/14 06:32:16;;;;;;;6.77;1.90;;;;;;;9.87;81.60;95061.50;6163216;23;20262;-78
2023/11/14 06:34:41;;;;;;;6.00;1.70;;;;;;;9.92;81.16;95075.66;6164179;23;20164;-80
2023/11/14 06:37:07;;;;;;;7.57;1.60;;;;;;;9.81;81.40;95077.72;6141321;23;20182;-80
2023/11/14 06:39:32;;;;;;;5.63;1.53;;;;;;;9.94;81.04;95080.69;6165139;23;20150;-79
2023/11/14 06:41:57;;;;;;;6.20;1.30;;;;;;;9.79;81.04;95077.03;6190664;23;20174;-80
2023/11/14 06:44:23;;;;;;;5.53;1.70;;;;;;;9.90;80.40;95066.41;6162543;23;20174;-80
2023/11/14 06:46:48;;;;;;;4.53;1.80;;;;;;;9.91;80.54;95057.66;6138710;23;20480;-80
2023/11/14 06:49:13;;;;;;;8.17;2.40;;;;;;;9.86;79.87;95075.44;6138190;23;20162;-78
2023/11/14 06:51:39;;;;;;;7.80;1.80;;;;;;;9.91;79.56;95084.41;6163299;23;20192;-80
2023/11/14 06:54:04;;;;;;;8.23;1.60;;;;;;;9.81;79.82;95075.94;6137964;23;20237;-78
2023/11/14 06:56:30;;;;;;;7.53;1.37;;;;;;;9.94;78.51;95073.72;6188218;23;20483;-77
2023/11/14 06:58:55;;;;;;;5.40;1.20;;;;;;;9.96;78.05;95081.34;6163238;23;20150;-80
2023/11/14 07:01:21;;;;;;;5.50;1.40;;;;;;;9.94;77.72;95091.88;6137926;23;20261;-80
2023/11/14 07:03:46;;;;;;;3.23;1.27;;;;;;;10.16;77.15;95103.50;6138434;23;20202;-79
2023/11/14 07:06:12;;;;;;;8.20;1.93;;;;;;;10.14;77.05;95107.19;6163425;23;20205;-81
2023/11/14 07:08:37;;;;;;;8.63;1.60;;;;;;;9.81;77.40;95111.44;6164159;23;20150;-80
2023/11/14 07:11:04;;;;;;;2.70;1.40;;;;;;;9.95;76.68;95129.00;6138973;23;20182;-79
2023/11/14 07:13:30;;;;;;;4.77;1.23;;;;;;;9.93;75.92;95120.56;6162247;23;20146;-79
2023/11/14 07:15:55;;;;;;;9.70;1.57;;;;;;;9.93;75.85;95117.97;6161721;23;20165;-80
2023/11/14 07:18:21;;;;;;;3.80;1.70;;;;;;;10.00;75.51;95103.41;6163934;23;20169;-78
2023/11/14 07:20:48;;;;;;;7.10;5.13;;;;;;;10.17;74.73;95104.31;6161875;23;20261;-80
2023/11/14 07:23:13;;;;;;;7.00;2.47;;;;;;;10.13;74.19;95108.97;6138371;23;20236;-81
2023/11/14 07:25:43;;;;;;;7.30;2.03;;;;;;;10.04;73.73;95096.94;6161343;23;20500;-79
2023/11/14 07:28:09;;;;;;;10.40;2.93;;;;;;;10.13;73.68;95097.78;6137567;23;20243;-79
2023/11/14 07:30:35;;;;;;;11.77;4.17;;;;;;;10.29;73.00;95117.84;6161722;23;20795;-80
2023/11/14 07:33:01;;;;;;;9.87;2.43;;;;;;;10.15;72.97;95107.03;6137260;23;20170;-81
2023/11/14 07:35:26;;;;;;;9.73;2.47;;;;;;;10.24;72.74;95102.72;6160246;23;20694;-79
2023/11/14 07:37:52;;;;;;;9.50;2.77;;;;;;;10.07;73.01;95101.84;6137527;23;20162;-80
2023/11/14 07:40:19;;;;;;;11.03;3.93;;;;;;;10.12;72.36;95120.34;6136722;23;20181;-78
2023/11/14 07:42:45;;;;;;;10.63;3.77;;;;;;;10.14;72.65;95133.16;6161268;23;20166;-79
2023/11/14 07:45:10;;;;;;;8.57;5.10;;;;;;;10.14;72.51;95144.34;6160041;23;20179;-80
2023/11/14 07:47:35;;;;;;;6.20;1.63;;;;;;;10.10;72.12;95139.63;6136442;23;20154;-80
2023/11/14 07:50:01;;;;;;;4.13;1.20;;;;;;;9.93;72.71;95128.34;6136753;23;20503;-79
2023/11/14 07:52:27;;;;;;;4.87;2.50;;;;;;;10.20;72.09;95133.34;6160555;23;20154;-79
2023/11/14 07:54:53;;;;;;;6.27;1.80;;;;;;;10.26;71.78;95139.75;6160342;23;20147;-79
2023/11/14 07:57:19;;;;;;;5.87;1.30;;;;;;;10.39;71.00;95145.28;6160684;23;20197;-81
2023/11/14 07:59:44;;;;;;;6.97;1.43;;;;;;;10.42;71.08;95141.56;6160939;23;20525;-81
2023/11/14 08:02:09;;;;;;;8.27;2.30;;;;;;;10.34;71.14;95126.81;6161283;23;20513;-79
2023/11/14 08:04:35;;;;;;;7.87;1.83;;;;;;;10.27;70.90;95133.56;6163008;23;20646;-80
2023/11/14 08:07:00;;;;;;;5.37;1.37;;;;;;;10.71;69.34;95160.19;6162769;23;20480;-79
2023/11/14 08:09:25;;;;;;;7.93;1.80;;;;;;;10.63;69.42;95173.16;6136697;23;20641;-77
2023/11/14 08:11:51;;;;;;;11.73;1.80;;;;;;;10.76;69.15;95168.31;6162331;23;20185;-79
2023/11/14 08:14:16;;;;;;;8.07;1.73;;;;;;;10.30;69.56;95168.78;6189106;23;20151;-80
2023/11/14 08:16:41;;;;;;;6.57;1.40;;;;;;;10.55;69.63;95190.47;6161589;23;20170;-78
2023/11/14 08:19:07;;;;;;;7.97;1.50;;;;;;;10.71;68.38;95190.53;6137310;23;20234;-83
2023/11/14 08:21:32;;;;;;;9.17;1.80;;;;;;;10.95;68.03;95193.19;6134944;23;20225;-82
2023/11/14 08:24:06;;;;;;;12.10;2.20;;;;;;;10.87;68.14;95184.59;6158044;23;20689;-82
2023/11/14 08:26:32;;;;;;;6.93;1.80;;;;;;;11.07;68.33;95171.16;6183578;23;20146;-84
2023/11/14 08:28:57;;;;;;;6.17;1.40;;;;;;;10.63;68.92;95161.94;6158755;23;20151;-81
2023/11/14 08:31:23;;;;;;;9.63;2.97;;;;;;;10.89;69.27;95165.28;6183215;23;20174;-81
2023/11/14 08:33:48;;;;;;;5.57;1.20;;;;;;;10.78;68.89;95156.00;6156771;23;20147;-81
2023/11/14 08:36:14;;;;;;;5.67;1.60;;;;;;;10.69;68.95;95137.94;6155220;23;20158;-82
2023/11/14 08:38:40;;;;;;;6.23;2.13;;;;;;;10.76;68.20;95138.94;6157785;23;20155;-81
2023/11/14 08:41:06;;;;;;;8.77;1.83;;;;;;;10.97;67.68;95141.91;6157929;23;20178;-79
2023/11/14 08:43:31;;;;;;;7.13;1.83;;;;;;;10.84;68.00;95151.13;6183640;23;20258;-82
2023/11/14 08:46:00;;;;;;;5.67;1.50;;;;;;;11.04;67.77;95163.69;6184050;23;20205;-81
2023/11/14 08:48:25;;;;;;;4.73;1.73;;;;;;;11.13;67.68;95150.69;6159019;23;20237;-80
2023/11/14 08:50:51;;;;;;;7.17;1.60;;;;;;;10.97;67.84;95139.31;6159110;23;20224;-79
2023/11/14 08:53:17;;;;;;;9.50;1.33;;;;;;;11.26;67.67;95143.25;6157380;23;20169;-79
2023/11/14 08:55:42;;;;;;;4.17;1.27;;;;;;;11.13;68.45;95158.47;6183160;23;20599;-78
2023/11/14 08:58:07;;;;;;;5.60;1.53;;;;;;;11.57;68.23;95172.84;6157328;23;20603;-79
2023/11/14 09:00:33;;;;;;;4.87;1.77;;;;;;;11.15;69.47;95162.56;6157056;23;20171;-79
2023/11/14 09:02:58;;;;;;;6.90;1.57;;;;;;;11.22;70.47;95157.50;6156593;23;20158;-78
2023/11/14 09:05:24;;;;;;;6.00;1.63;;;;;;;11.07;70.58;95154.75;6131712;23;20567;-78
2023/11/14 09:07:50;;;;;;;3.77;1.60;;;;;;;11.13;70.81;95135.94;6159526;23;20698;-77
2023/11/14 09:10:15;;;;;;;8.00;1.60;;;;;;;10.87;70.10;95128.25;6156526;23;20187;-79
2023/11/14 09:12:41;;;;;;;6.03;1.60;;;;;;;11.17;70.90;95115.63;6131792;23;20158;-80
2023/11/14 09:15:07;;;;;;;4.27;1.23;;;;;;;11.39;70.16;95125.34;6182124;23;20151;-79
2023/11/14 09:17:33;;;;;;;6.27;1.40;;;;;;;11.50;69.69;95109.44;6132164;23;20502;-79
2023/11/14 09:19:58;;;;;;;3.50;1.30;;;;;;;11.75;68.87;95117.19;6131807;23;20162;-79
2023/11/14 09:22:29;;;;;;;3.10;1.13;;;;;;;11.78;68.06;95135.09;6156777;23;20226;-79
2023/11/14 09:24:55;;;;;;;5.27;1.67;;;;;;;11.55;68.67;95143.56;6182836;23;20169;-80
2023/11/14 09:27:22;;;;;;;3.90;1.17;;;;;;;11.76;68.43;95142.28;6156051;23;20189;-78
2023/11/14 09:29:48;;;;;;;7.30;1.40;;;;;;;11.53;69.27;95139.50;6157193;23;20155;-79
2023/11/14 09:32:13;;;;;;;3.60;1.40;;;;;;;11.52;69.40;95156.91;6156487;23;20611;-77
2023/11/14 09:34:38;;;;;;;4.83;1.40;;;;;;;11.52;69.58;95172.50;6157242;23;20638;-79
2023/11/14 09:37:04;;;;;;;6.60;1.70;;;;;;;11.58;70.16;95179.66;6131353;23;20158;-79
2023/11/14 09:39:31;;;;;;;6.90;1.40;;;;;;;11.32;70.83;95189.41;6183431;23;20489;-79
2023/11/14 09:41:57;;;;;;;6.87;1.00;;;;;;;11.17;69.96;95175.41;6184573;23;20250;-79
2023/11/14 09:44:23;;;;;;;9.80;1.60;;;;;;;11.52;69.59;95158.69;6158965;23;20182;-78
2023/11/14 09:46:50;;;;;;;7.93;1.17;;;;;;;11.38;69.88;95156.72;6158317;23;20155;-80
2023/11/14 09:49:16;;;;;;;4.50;1.20;;;;;;;11.19;70.38;95168.25;6158398;23;20950;-79
2023/11/14 09:51:44;;;;;;;5.63;1.10;;;;;;;11.19;70.94;95163.03;6158728;23;20630;-79
2023/11/14 09:54:12;;;;;;;2.33;1.03;;;;;;;10.92;70.81;95175.34;6158869;23;20158;-79
2023/11/14 09:56:38;;;;;;;5.37;1.07;;;;;;;11.43;69.88;95176.06;6134232;23;20209;-77
2023/11/14 09:59:04;;;;;;;2.93;1.13;;;;;;;11.57;69.14;95178.03;6134579;23;20621;-78
2023/11/14 10:01:29;;;;;;;4.43;1.33;;;;;;;11.36;70.29;95177.69;6158534;23;20650;-78
2023/11/14 10:03:55;;;;;;;4.43;1.10;;;;;;;11.47;69.93;95176.56;6133705;23;20324;-79
2023/11/14 10:06:21;;;;;;;3.90;1.73;;;;;;;11.07;69.83;95180.75;6159009;23;20159;-78
2023/11/14 10:08:47;;;;;;;4.77;1.30;;;;;;;11.12;70.36;95177.66;6144758;23;20138;-78
2023/11/14 10:11:15;;;;;;;3.00;1.00;;;;;;;11.31;69.67;95187.78;6163201;23;20237;-79
2023/11/14 10:13:41;;;;;;;5.27;1.90;;;;;;;11.10;70.75;95177.00;6163785;23;20150;-77
2023/11/14 10:16:20;;;;;;;5.83;1.93;;;;;;;11.34;70.93;95158.84;6161640;23;20146;-78
2023/11/14 10:18:49;;;;;;;5.47;1.63;;;;;;;11.06;71.48;95164.34;6163312;23;20216;-81
2023/11/14 10:21:22;;;;;;;3.83;1.10;;;;;;;11.38;71.05;95148.94;6188074;23;20162;-78
2023/11/14 10:23:47;;;;;;;9.53;2.60;;;;;;;11.32;71.13;95150.41;6213210;23;20151;-77
2023/11/14 10:26:13;;;;;;;7.37;1.60;;;;;;;11.39;71.73;95153.97;6162260;23;20186;-76
2023/11/14 10:28:50;;;;;;;5.03;1.10;;;;;;;11.18;71.32;95136.25;6162335;23;20174;-77
2023/11/14 10:31:16;;;;;;;2.80;1.33;;;;;;;11.28;71.34;95141.28;6161715;23;20250;-78
2023/11/14 10:33:41;;;;;;;7.67;1.80;;;;;;;11.33;70.68;95139.03;6162602;23;20153;-77
2023/11/14 10:36:10;;;;;;;5.13;1.30;;;;;;;11.39;70.89;95135.75;6171488;23;20159;-79
2023/11/14 10:38:35;;;;;;;1.53;1.00;;;;;;;11.64;70.51;95158.19;6144791;23;20169;-79
2023/11/14 10:41:01;;;;;;;4.13;1.30;;;;;;;11.71;70.85;95168.75;6194455;23;20178;-78
2023/11/14 10:43:31;;;;;;;5.37;1.40;;;;;;;11.72;70.33;95175.56;6167940;23;20202;-79
2023/11/14 10:46:00;;;;;;;4.17;1.30;;;;;;;11.95;69.97;95157.53;6143433;23;20214;-79
2023/11/14 10:48:26;;;;;;;4.60;1.30;;;;;;;11.78;70.72;95156.72;6167149;23;20186;-79
2023/11/14 10:50:52;;;;;;;2.97;1.07;;;;;;;12.02;69.87;95160.31;6143215;23;20242;-78
2023/11/14 10:53:18;;;;;;;3.97;1.40;;;;;;;12.00;70.00;95157.03;6167776;23;20151;-80
2023/11/14 10:55:45;;;;;;;5.07;1.50;;;;;;;11.69;71.16;95159.50;6166829;23;20162;-79
2023/11/14 10:58:12;;;;;;;3.10;1.10;;;;;;;11.85;71.02;95149.94;6165254;23;20302;-78
2023/11/14 11:00:37;;;;;;;3.17;1.00;;;;;;;11.61;71.15;95142.09;6140223;23;20678;-79
2023/11/14 11:03:04;;;;;;;5.77;1.33;;;;;;;11.75;71.08;95143.22;6165584;23;20150;-78
2023/11/14 11:05:31;;;;;;;6.57;1.00;;;;;;;11.77;71.43;95126.50;6163798;23;20182;-79
2023/11/14 11:08:04;;;;;;;3.30;1.40;;;;;;;11.97;70.59;95119.16;6164326;23;20603;-77
2023/11/14 11:10:30;;;;;;;4.93;1.20;;;;;;;11.97;71.09;95100.13;6190878;23;20175;-77
2023/11/14 11:12:57;;;;;;;4.20;1.30;;;;;;;11.90;71.32;95084.38;6140069;23;20729;-79
2023/11/14 11:15:23;;;;;;;4.57;1.40;;;;;;;11.52;71.84;95075.47;6164355;23;20155;-79
2023/11/14 11:17:48;;;;;;;4.93;1.20;;;;;;;12.21;70.03;95049.78;6188611;23;20162;-77
2023/11/14 11:20:23;;;;;;;6.77;1.50;;;;;;;12.34;70.18;95048.25;6184557;23;20186;-77
2023/11/14 11:23:12;;;;;;;4.30;1.33;;;;;;;12.55;69.07;95037.25;6189942;23;20153;-78
2023/11/14 11:26:13;;;;;;;3.70;1.10;;;;;;;12.65;68.64;95005.75;6163994;23;20135;-79